sensor_id;sensor_type;location;lat;lon;timestamp;P1;durP1;ratioP1;P2;durP2;ratioP2
48241;SDS011;34041;51.812;4.622;2022-07-12T00:00:34;6.13;;;2.97;;
48241;SDS011;34041;51.812;4.622;2022-07-12T00:03:34;3.93;;;2.43;;
48241;SDS011;34041;51.812;4.622;2022-07-12T00:06:34;7.17;;;2.90;;
48241;SDS011;34041;51.812;4.622;2022-07-12T00:09:35;4.97;;;2.47;;
48241;SDS011;34041;51.812;4.622;2022-07-12T00:12:35;4.47;;;2.33;;
48241;SDS011;34041;51.812;4.622;2022-07-12T00:15:36;3.40;;;2.30;;
48241;SDS011;34041;51.812;4.622;2022-07-12T00:18:36;5.00;;;2.70;;
48241;SDS011;34041;51.812;4.622;2022-07-12T00:21:36;8.48;;;2.65;;
48241;SDS011;34041;51.812;4.622;2022-07-12T00:24:36;4.53;;;2.30;;
48241;SDS011;34041;51.812;4.622;2022-07-12T00:27:37;4.10;;;3.13;;
48241;SDS011;34041;51.812;4.622;2022-07-12T00:30:37;4.70;;;2.92;;
48241;SDS011;34041;51.812;4.622;2022-07-12T00:33:37;8.45;;;2.55;;
48241;SDS011;34041;51.812;4.622;2022-07-12T00:36:37;4.77;;;2.70;;
48241;SDS011;34041;51.812;4.622;2022-07-12T00:39:38;3.03;;;2.30;;
48241;SDS011;34041;51.812;4.622;2022-07-12T00:42:38;4.17;;;2.30;;
48241;SDS011;34041;51.812;4.622;2022-07-12T00:45:41;5.18;;;2.05;;
48241;SDS011;34041;51.812;4.622;2022-07-12T00:48:41;4.95;;;2.50;;
48241;SDS011;34041;51.812;4.622;2022-07-12T00:51:44;4.73;;;2.50;;
48241;SDS011;34041;51.812;4.622;2022-07-12T00:54:45;5.22;;;2.00;;
48241;SDS011;34041;51.812;4.622;2022-07-12T00:57:45;4.57;;;3.30;;
48241;SDS011;34041;51.812;4.622;2022-07-12T01:00:46;4.45;;;2.88;;
48241;SDS011;34041;51.812;4.622;2022-07-12T01:03:46;3.67;;;2.83;;
48241;SDS011;34041;51.812;4.622;2022-07-12T01:06:47;2.83;;;2.07;;
48241;SDS011;34041;51.812;4.622;2022-07-12T01:09:47;3.70;;;2.08;;
48241;SDS011;34041;51.812;4.622;2022-07-12T01:12:48;4.57;;;2.30;;
48241;SDS011;34041;51.812;4.622;2022-07-12T01:15:49;4.57;;;2.63;;
48241;SDS011;34041;51.812;4.622;2022-07-12T01:18:49;2.90;;;2.05;;
48241;SDS011;34041;51.812;4.622;2022-07-12T01:21:50;5.78;;;2.92;;
48241;SDS011;34041;51.812;4.622;2022-07-12T01:24:51;3.60;;;2.35;;
48241;SDS011;34041;51.812;4.622;2022-07-12T01:27:51;7.47;;;3.40;;
48241;SDS011;34041;51.812;4.622;2022-07-12T01:30:52;4.25;;;2.95;;
48241;SDS011;34041;51.812;4.622;2022-07-12T01:33:52;4.70;;;3.33;;
48241;SDS011;34041;51.812;4.622;2022-07-12T01:36:52;5.80;;;2.53;;
48241;SDS011;34041;51.812;4.622;2022-07-12T01:39:54;3.27;;;2.37;;
48241;SDS011;34041;51.812;4.622;2022-07-12T01:42:54;6.45;;;2.97;;
48241;SDS011;34041;51.812;4.622;2022-07-12T01:45:54;3.80;;;2.40;;
48241;SDS011;34041;51.812;4.622;2022-07-12T01:48:56;5.97;;;3.37;;
48241;SDS011;34041;51.812;4.622;2022-07-12T01:51:56;3.50;;;2.83;;
48241;SDS011;34041;51.812;4.622;2022-07-12T01:54:57;3.60;;;2.50;;
48241;SDS011;34041;51.812;4.622;2022-07-12T01:57:57;4.57;;;3.10;;
48241;SDS011;34041;51.812;4.622;2022-07-12T02:00:58;5.10;;;2.65;;
48241;SDS011;34041;51.812;4.622;2022-07-12T02:04:01;4.50;;;3.40;;
48241;SDS011;34041;51.812;4.622;2022-07-12T02:07:02;3.92;;;2.55;;
48241;SDS011;34041;51.812;4.622;2022-07-12T02:10:04;5.30;;;3.75;;
48241;SDS011;34041;51.812;4.622;2022-07-12T02:13:05;3.63;;;3.10;;
48241;SDS011;34041;51.812;4.622;2022-07-12T02:16:05;4.35;;;3.35;;
48241;SDS011;34041;51.812;4.622;2022-07-12T02:19:06;4.18;;;2.90;;
48241;SDS011;34041;51.812;4.622;2022-07-12T02:22:06;3.60;;;2.83;;
48241;SDS011;34041;51.812;4.622;2022-07-12T02:25:07;5.33;;;3.30;;
48241;SDS011;34041;51.812;4.622;2022-07-12T02:28:07;4.30;;;3.38;;
48241;SDS011;34041;51.812;4.622;2022-07-12T02:31:07;4.22;;;3.67;;
48241;SDS011;34041;51.812;4.622;2022-07-12T02:34:08;4.57;;;3.15;;
48241;SDS011;34041;51.812;4.622;2022-07-12T02:37:08;4.40;;;3.60;;
48241;SDS011;34041;51.812;4.622;2022-07-12T02:40:09;5.63;;;3.40;;
48241;SDS011;34041;51.812;4.622;2022-07-12T02:43:28;6.55;;;4.00;;
48241;SDS011;34041;51.812;4.622;2022-07-12T02:46:29;7.05;;;4.07;;
48241;SDS011;34041;51.812;4.622;2022-07-12T02:49:29;7.60;;;3.40;;
48241;SDS011;34041;51.812;4.622;2022-07-12T02:52:29;5.43;;;3.67;;
48241;SDS011;34041;51.812;4.622;2022-07-12T02:55:29;5.40;;;3.83;;
48241;SDS011;34041;51.812;4.622;2022-07-12T02:58:30;7.57;;;4.10;;
48241;SDS011;34041;51.812;4.622;2022-07-12T03:01:30;7.43;;;4.10;;
48241;SDS011;34041;51.812;4.622;2022-07-12T03:04:30;7.90;;;3.80;;
48241;SDS011;34041;51.812;4.622;2022-07-12T03:07:30;5.10;;;4.18;;
48241;SDS011;34041;51.812;4.622;2022-07-12T03:10:31;5.37;;;4.43;;
48241;SDS011;34041;51.812;4.622;2022-07-12T03:13:31;11.77;;;5.40;;
48241;SDS011;34041;51.812;4.622;2022-07-12T03:16:31;9.00;;;4.50;;
48241;SDS011;34041;51.812;4.622;2022-07-12T03:19:31;10.23;;;4.63;;
48241;SDS011;34041;51.812;4.622;2022-07-12T03:22:32;6.30;;;4.72;;
48241;SDS011;34041;51.812;4.622;2022-07-12T03:25:32;5.00;;;4.00;;
48241;SDS011;34041;51.812;4.622;2022-07-12T03:28:32;9.03;;;4.90;;
48241;SDS011;34041;51.812;4.622;2022-07-12T03:31:32;4.83;;;4.03;;
48241;SDS011;34041;51.812;4.622;2022-07-12T03:34:33;5.20;;;4.70;;
48241;SDS011;34041;51.812;4.622;2022-07-12T03:37:43;6.17;;;4.20;;
48241;SDS011;34041;51.812;4.622;2022-07-12T03:40:43;5.82;;;4.28;;
48241;SDS011;34041;51.812;4.622;2022-07-12T03:43:44;5.72;;;5.07;;
48241;SDS011;34041;51.812;4.622;2022-07-12T03:46:44;4.50;;;4.10;;
48241;SDS011;34041;51.812;4.622;2022-07-12T03:49:44;6.07;;;5.00;;
48241;SDS011;34041;51.812;4.622;2022-07-12T03:52:44;7.05;;;5.43;;
48241;SDS011;34041;51.812;4.622;2022-07-12T03:55:45;8.85;;;4.55;;
48241;SDS011;34041;51.812;4.622;2022-07-12T03:58:45;6.07;;;4.50;;
48241;SDS011;34041;51.812;4.622;2022-07-12T04:01:45;5.97;;;4.90;;
48241;SDS011;34041;51.812;4.622;2022-07-12T04:04:45;6.60;;;5.47;;
48241;SDS011;34041;51.812;4.622;2022-07-12T04:07:45;7.43;;;5.33;;
48241;SDS011;34041;51.812;4.622;2022-07-12T04:10:46;12.37;;;6.20;;
48241;SDS011;34041;51.812;4.622;2022-07-12T04:13:46;6.13;;;5.53;;
48241;SDS011;34041;51.812;4.622;2022-07-12T04:16:46;8.13;;;5.80;;
48241;SDS011;34041;51.812;4.622;2022-07-12T04:19:46;6.32;;;5.53;;
48241;SDS011;34041;51.812;4.622;2022-07-12T04:22:46;6.70;;;6.00;;
48241;SDS011;34041;51.812;4.622;2022-07-12T04:25:47;8.90;;;6.03;;
48241;SDS011;34041;51.812;4.622;2022-07-12T04:28:47;8.60;;;5.90;;
48241;SDS011;34041;51.812;4.622;2022-07-12T04:31:47;8.30;;;6.90;;
48241;SDS011;34041;51.812;4.622;2022-07-12T04:34:47;11.80;;;6.10;;
48241;SDS011;34041;51.812;4.622;2022-07-12T04:37:48;10.97;;;6.47;;
48241;SDS011;34041;51.812;4.622;2022-07-12T04:40:48;12.30;;;6.73;;
48241;SDS011;34041;51.812;4.622;2022-07-12T04:43:48;13.33;;;7.23;;
48241;SDS011;34041;51.812;4.622;2022-07-12T04:46:48;11.37;;;6.83;;
48241;SDS011;34041;51.812;4.622;2022-07-12T04:49:49;11.95;;;7.47;;
48241;SDS011;34041;51.812;4.622;2022-07-12T04:52:49;9.13;;;7.30;;
48241;SDS011;34041;51.812;4.622;2022-07-12T04:55:49;9.07;;;7.07;;
48241;SDS011;34041;51.812;4.622;2022-07-12T04:58:49;14.20;;;7.20;;
48241;SDS011;34041;51.812;4.622;2022-07-12T05:01:49;22.50;;;9.10;;
48241;SDS011;34041;51.812;4.622;2022-07-12T05:04:50;22.57;;;9.23;;
48241;SDS011;34041;51.812;4.622;2022-07-12T05:07:50;13.43;;;7.43;;
48241;SDS011;34041;51.812;4.622;2022-07-12T05:10:50;10.80;;;7.37;;
48241;SDS011;34041;51.812;4.622;2022-07-12T05:13:50;11.37;;;7.47;;
48241;SDS011;34041;51.812;4.622;2022-07-12T05:16:50;9.97;;;8.50;;
48241;SDS011;34041;51.812;4.622;2022-07-12T05:19:51;11.90;;;8.07;;
48241;SDS011;34041;51.812;4.622;2022-07-12T05:22:51;12.07;;;8.73;;
48241;SDS011;34041;51.812;4.622;2022-07-12T05:25:51;9.80;;;8.07;;
48241;SDS011;34041;51.812;4.622;2022-07-12T05:28:51;10.47;;;8.17;;
48241;SDS011;34041;51.812;4.622;2022-07-12T05:31:54;13.68;;;7.95;;
48241;SDS011;34041;51.812;4.622;2022-07-12T05:34:55;10.13;;;9.13;;
48241;SDS011;34041;51.812;4.622;2022-07-12T05:37:55;9.00;;;8.10;;
48241;SDS011;34041;51.812;4.622;2022-07-12T05:40:55;13.77;;;8.73;;
48241;SDS011;34041;51.812;4.622;2022-07-12T05:43:55;10.77;;;8.30;;
48241;SDS011;34041;51.812;4.622;2022-07-12T05:46:56;10.17;;;9.17;;
48241;SDS011;34041;51.812;4.622;2022-07-12T05:49:56;8.27;;;7.47;;
48241;SDS011;34041;51.812;4.622;2022-07-12T05:52:56;12.23;;;8.33;;
48241;SDS011;34041;51.812;4.622;2022-07-12T05:56:15;11.77;;;8.50;;
48241;SDS011;34041;51.812;4.622;2022-07-12T05:59:15;11.67;;;10.47;;
48241;SDS011;34041;51.812;4.622;2022-07-12T06:02:15;13.43;;;9.40;;
48241;SDS011;34041;51.812;4.622;2022-07-12T06:05:15;13.90;;;8.63;;
48241;SDS011;34041;51.812;4.622;2022-07-12T06:08:16;11.20;;;9.90;;
48241;SDS011;34041;51.812;4.622;2022-07-12T06:11:16;11.60;;;9.20;;
48241;SDS011;34041;51.812;4.622;2022-07-12T06:14:17;12.20;;;11.00;;
48241;SDS011;34041;51.812;4.622;2022-07-12T06:17:18;12.07;;;10.68;;
48241;SDS011;34041;51.812;4.622;2022-07-12T06:20:21;10.65;;;9.55;;
48241;SDS011;34041;51.812;4.622;2022-07-12T06:23:21;10.53;;;9.53;;
48241;SDS011;34041;51.812;4.622;2022-07-12T06:26:21;12.13;;;10.43;;
48241;SDS011;34041;51.812;4.622;2022-07-12T06:29:21;12.03;;;9.33;;
48241;SDS011;34041;51.812;4.622;2022-07-12T06:32:22;11.63;;;9.67;;
48241;SDS011;34041;51.812;4.622;2022-07-12T06:35:22;13.27;;;9.60;;
48241;SDS011;34041;51.812;4.622;2022-07-12T06:38:22;11.20;;;10.23;;
48241;SDS011;34041;51.812;4.622;2022-07-12T06:41:22;12.57;;;9.90;;
48241;SDS011;34041;51.812;4.622;2022-07-12T06:44:24;10.80;;;9.57;;
48241;SDS011;34041;51.812;4.622;2022-07-12T06:47:24;10.50;;;9.40;;
48241;SDS011;34041;51.812;4.622;2022-07-12T06:50:25;11.43;;;10.27;;
48241;SDS011;34041;51.812;4.622;2022-07-12T06:53:25;12.73;;;11.37;;
48241;SDS011;34041;51.812;4.622;2022-07-12T06:56:26;11.63;;;10.52;;
48241;SDS011;34041;51.812;4.622;2022-07-12T06:59:26;10.80;;;9.80;;
48241;SDS011;34041;51.812;4.622;2022-07-12T07:02:26;9.63;;;8.73;;
48241;SDS011;34041;51.812;4.622;2022-07-12T07:05:27;10.97;;;8.63;;
48241;SDS011;34041;51.812;4.622;2022-07-12T07:08:27;8.77;;;7.97;;
48241;SDS011;34041;51.812;4.622;2022-07-12T07:11:27;13.13;;;9.43;;
48241;SDS011;34041;51.812;4.622;2022-07-12T07:14:27;8.97;;;8.07;;
48241;SDS011;34041;51.812;4.622;2022-07-12T07:17:27;9.47;;;8.53;;
48241;SDS011;34041;51.812;4.622;2022-07-12T07:20:28;14.50;;;9.40;;
48241;SDS011;34041;51.812;4.622;2022-07-12T07:23:28;10.50;;;9.57;;
48241;SDS011;34041;51.812;4.622;2022-07-12T07:26:28;10.30;;;9.37;;
48241;SDS011;34041;51.812;4.622;2022-07-12T07:29:28;13.30;;;8.90;;
48241;SDS011;34041;51.812;4.622;2022-07-12T07:32:47;8.63;;;7.72;;
48241;SDS011;34041;51.812;4.622;2022-07-12T07:35:47;10.63;;;6.67;;
48241;SDS011;34041;51.812;4.622;2022-07-12T07:38:48;8.13;;;7.03;;
48241;SDS011;34041;51.812;4.622;2022-07-12T07:41:48;6.67;;;6.07;;
48241;SDS011;34041;51.812;4.622;2022-07-12T07:44:48;9.87;;;7.63;;
48241;SDS011;34041;51.812;4.622;2022-07-12T07:47:49;9.70;;;8.70;;
48241;SDS011;34041;51.812;4.622;2022-07-12T07:50:49;9.98;;;8.63;;
48241;SDS011;34041;51.812;4.622;2022-07-12T07:53:49;12.73;;;7.80;;
48241;SDS011;34041;51.812;4.622;2022-07-12T07:56:49;12.50;;;8.73;;
48241;SDS011;34041;51.812;4.622;2022-07-12T07:59:50;11.73;;;9.87;;
48241;SDS011;34041;51.812;4.622;2022-07-12T08:02:50;9.93;;;8.53;;
48241;SDS011;34041;51.812;4.622;2022-07-12T08:05:50;8.97;;;8.07;;
48241;SDS011;34041;51.812;4.622;2022-07-12T08:08:51;7.32;;;6.13;;
48241;SDS011;34041;51.812;4.622;2022-07-12T08:11:51;7.50;;;6.80;;
48241;SDS011;34041;51.812;4.622;2022-07-12T08:14:51;8.10;;;6.63;;
48241;SDS011;34041;51.812;4.622;2022-07-12T08:17:52;8.45;;;7.43;;
48241;SDS011;34041;51.812;4.622;2022-07-12T08:20:52;8.70;;;6.57;;
48241;SDS011;34041;51.812;4.622;2022-07-12T08:23:52;7.73;;;6.27;;
48241;SDS011;34041;51.812;4.622;2022-07-12T08:26:53;7.97;;;7.18;;
48241;SDS011;34041;51.812;4.622;2022-07-12T08:29:53;8.17;;;6.40;;
48241;SDS011;34041;51.812;4.622;2022-07-12T08:32:53;8.87;;;7.17;;
48241;SDS011;34041;51.812;4.622;2022-07-12T08:35:55;7.88;;;7.00;;
48241;SDS011;34041;51.812;4.622;2022-07-12T08:38:55;6.63;;;5.38;;
48241;SDS011;34041;51.812;4.622;2022-07-12T08:41:55;6.57;;;5.30;;
48241;SDS011;34041;51.812;4.622;2022-07-12T08:44:56;6.97;;;6.27;;
48241;SDS011;34041;51.812;4.622;2022-07-12T08:47:57;5.72;;;5.07;;
48241;SDS011;34041;51.812;4.622;2022-07-12T08:51:04;11.17;;;5.70;;
48241;SDS011;34041;51.812;4.622;2022-07-12T08:54:08;7.95;;;4.97;;
48241;SDS011;34041;51.812;4.622;2022-07-12T08:57:08;7.38;;;5.13;;
48241;SDS011;34041;51.812;4.622;2022-07-12T09:00:08;5.63;;;5.00;;
48241;SDS011;34041;51.812;4.622;2022-07-12T09:03:09;7.40;;;5.53;;
48241;SDS011;34041;51.812;4.622;2022-07-12T09:06:12;5.90;;;5.30;;
48241;SDS011;34041;51.812;4.622;2022-07-12T09:09:25;6.53;;;5.15;;
48241;SDS011;34041;51.812;4.622;2022-07-12T09:12:26;7.70;;;4.68;;
48241;SDS011;34041;51.812;4.622;2022-07-12T09:15:26;7.18;;;6.15;;
48241;SDS011;34041;51.812;4.622;2022-07-12T09:18:27;8.43;;;5.63;;
48241;SDS011;34041;51.812;4.622;2022-07-12T09:21:28;7.53;;;6.18;;
48241;SDS011;34041;51.812;4.622;2022-07-12T09:24:31;7.70;;;5.20;;
48241;SDS011;34041;51.812;4.622;2022-07-12T09:27:32;6.77;;;6.07;;
48241;SDS011;34041;51.812;4.622;2022-07-12T09:30:33;7.13;;;5.30;;
48241;SDS011;34041;51.812;4.622;2022-07-12T09:33:33;9.68;;;5.95;;
48241;SDS011;34041;51.812;4.622;2022-07-12T09:36:56;7.30;;;5.60;;
48241;SDS011;34041;51.812;4.622;2022-07-12T09:39:56;7.40;;;5.28;;
48241;SDS011;34041;51.812;4.622;2022-07-12T09:42:57;5.55;;;4.72;;
48241;SDS011;34041;51.812;4.622;2022-07-12T09:45:57;7.63;;;5.50;;
48241;SDS011;34041;51.812;4.622;2022-07-12T09:48:58;6.05;;;5.28;;
48241;SDS011;34041;51.812;4.622;2022-07-12T09:51:58;6.13;;;4.82;;
48241;SDS011;34041;51.812;4.622;2022-07-12T09:54:59;8.27;;;4.72;;
48241;SDS011;34041;51.812;4.622;2022-07-12T09:58:01;6.28;;;4.88;;
48241;SDS011;34041;51.812;4.622;2022-07-12T10:01:02;19.90;;;6.03;;
48241;SDS011;34041;51.812;4.622;2022-07-12T10:04:02;9.73;;;6.40;;
48241;SDS011;34041;51.812;4.622;2022-07-12T10:07:03;9.63;;;6.07;;
48241;SDS011;34041;51.812;4.622;2022-07-12T10:10:04;7.35;;;5.07;;
48241;SDS011;34041;51.812;4.622;2022-07-12T10:13:05;5.70;;;4.85;;
48241;SDS011;34041;51.812;4.622;2022-07-12T10:16:05;8.13;;;4.68;;
48241;SDS011;34041;51.812;4.622;2022-07-12T10:22:40;7.90;;;5.35;;
48241;SDS011;34041;51.812;4.622;2022-07-12T10:25:41;9.10;;;5.97;;
48241;SDS011;34041;51.812;4.622;2022-07-12T10:28:59;6.93;;;4.85;;
48241;SDS011;34041;51.812;4.622;2022-07-12T10:31:59;5.28;;;4.72;;
48241;SDS011;34041;51.812;4.622;2022-07-12T10:35:00;6.60;;;5.00;;
48241;SDS011;34041;51.812;4.622;2022-07-12T10:38:17;5.53;;;4.43;;
48241;SDS011;34041;51.812;4.622;2022-07-12T10:41:18;5.40;;;4.57;;
48241;SDS011;34041;51.812;4.622;2022-07-12T10:44:33;7.03;;;5.10;;
48241;SDS011;34041;51.812;4.622;2022-07-12T10:47:33;6.95;;;5.22;;
48241;SDS011;34041;51.812;4.622;2022-07-12T10:50:53;6.63;;;5.68;;
48241;SDS011;34041;51.812;4.622;2022-07-12T10:53:57;6.10;;;4.80;;
48241;SDS011;34041;51.812;4.622;2022-07-12T10:57:37;5.55;;;4.93;;
48241;SDS011;34041;51.812;4.622;2022-07-12T11:00:37;7.28;;;4.90;;
48241;SDS011;34041;51.812;4.622;2022-07-12T11:03:48;5.95;;;5.18;;
48241;SDS011;34041;51.812;4.622;2022-07-12T11:06:49;7.32;;;4.57;;
48241;SDS011;34041;51.812;4.622;2022-07-12T11:09:52;5.85;;;4.65;;
48241;SDS011;34041;51.812;4.622;2022-07-12T11:12:53;5.72;;;4.70;;
48241;SDS011;34041;51.812;4.622;2022-07-12T11:15:57;8.83;;;4.97;;
48241;SDS011;34041;51.812;4.622;2022-07-12T11:18:57;5.68;;;5.07;;
48241;SDS011;34041;51.812;4.622;2022-07-12T11:21:57;7.20;;;5.93;;
48241;SDS011;34041;51.812;4.622;2022-07-12T11:24:58;9.65;;;5.60;;
48241;SDS011;34041;51.812;4.622;2022-07-12T11:27:59;70.90;;;25.15;;
48241;SDS011;34041;51.812;4.622;2022-07-12T11:31:03;15.75;;;8.60;;
48241;SDS011;34041;51.812;4.622;2022-07-12T11:34:04;9.35;;;8.23;;
48241;SDS011;34041;51.812;4.622;2022-07-12T11:37:04;11.07;;;8.25;;
48241;SDS011;34041;51.812;4.622;2022-07-12T11:40:05;9.80;;;7.60;;
48241;SDS011;34041;51.812;4.622;2022-07-12T11:43:06;7.45;;;6.65;;
48241;SDS011;34041;51.812;4.622;2022-07-12T11:46:06;8.05;;;6.90;;
48241;SDS011;34041;51.812;4.622;2022-07-12T11:49:07;8.85;;;6.95;;
48241;SDS011;34041;51.812;4.622;2022-07-12T11:52:07;11.93;;;7.55;;
48241;SDS011;34041;51.812;4.622;2022-07-12T11:55:08;8.80;;;7.65;;
48241;SDS011;34041;51.812;4.622;2022-07-12T11:58:08;9.98;;;6.90;;
48241;SDS011;34041;51.812;4.622;2022-07-12T12:01:11;7.33;;;6.57;;
48241;SDS011;34041;51.812;4.622;2022-07-12T12:04:11;8.32;;;6.32;;
48241;SDS011;34041;51.812;4.622;2022-07-12T12:07:12;7.17;;;6.47;;
48241;SDS011;34041;51.812;4.622;2022-07-12T12:10:16;6.63;;;6.03;;
48241;SDS011;34041;51.812;4.622;2022-07-12T12:13:16;10.20;;;6.88;;
48241;SDS011;34041;51.812;4.622;2022-07-12T12:16:17;8.18;;;5.93;;
48241;SDS011;34041;51.812;4.622;2022-07-12T12:19:17;6.13;;;5.30;;
48241;SDS011;34041;51.812;4.622;2022-07-12T12:22:27;6.97;;;5.97;;
48241;SDS011;34041;51.812;4.622;2022-07-12T12:25:27;7.32;;;5.53;;
48241;SDS011;34041;51.812;4.622;2022-07-12T12:28:40;6.28;;;4.60;;
48241;SDS011;34041;51.812;4.622;2022-07-12T12:31:40;7.68;;;5.20;;
48241;SDS011;34041;51.812;4.622;2022-07-12T12:34:40;5.07;;;4.23;;
48241;SDS011;34041;51.812;4.622;2022-07-12T12:37:47;5.75;;;5.22;;
48241;SDS011;34041;51.812;4.622;2022-07-12T12:40:50;5.60;;;5.05;;
48241;SDS011;34041;51.812;4.622;2022-07-12T12:46:58;5.47;;;4.20;;
48241;SDS011;34041;51.812;4.622;2022-07-12T12:50:17;5.10;;;3.95;;
48241;SDS011;34041;51.812;4.622;2022-07-12T12:53:18;5.37;;;4.43;;
48241;SDS011;34041;51.812;4.622;2022-07-12T12:56:19;5.00;;;4.20;;
48241;SDS011;34041;51.812;4.622;2022-07-12T12:59:19;4.27;;;3.30;;
48241;SDS011;34041;51.812;4.622;2022-07-12T13:02:19;4.70;;;4.17;;
48241;SDS011;34041;51.812;4.622;2022-07-12T13:05:20;4.63;;;4.13;;
48241;SDS011;34041;51.812;4.622;2022-07-12T13:08:20;4.97;;;4.47;;
48241;SDS011;34041;51.812;4.622;2022-07-12T13:11:21;5.88;;;4.80;;
48241;SDS011;34041;51.812;4.622;2022-07-12T13:14:22;5.47;;;4.15;;
48241;SDS011;34041;51.812;4.622;2022-07-12T13:17:23;4.85;;;3.97;;
48241;SDS011;34041;51.812;4.622;2022-07-12T13:20:23;4.80;;;4.13;;
48241;SDS011;34041;51.812;4.622;2022-07-12T13:23:24;4.15;;;3.67;;
48241;SDS011;34041;51.812;4.622;2022-07-12T13:26:24;5.70;;;4.90;;
48241;SDS011;34041;51.812;4.622;2022-07-12T13:29:24;6.50;;;4.00;;
48241;SDS011;34041;51.812;4.622;2022-07-12T13:32:25;6.07;;;5.03;;
48241;SDS011;34041;51.812;4.622;2022-07-12T13:35:25;5.10;;;4.60;;
48241;SDS011;34041;51.812;4.622;2022-07-12T13:38:29;6.97;;;4.70;;
48241;SDS011;34041;51.812;4.622;2022-07-12T13:41:29;4.93;;;4.40;;
48241;SDS011;34041;51.812;4.622;2022-07-12T13:44:29;17.97;;;8.77;;
48241;SDS011;34041;51.812;4.622;2022-07-12T13:47:30;12.65;;;6.82;;
48241;SDS011;34041;51.812;4.622;2022-07-12T13:50:30;8.68;;;6.20;;
48241;SDS011;34041;51.812;4.622;2022-07-12T13:53:30;9.87;;;5.60;;
48241;SDS011;34041;51.812;4.622;2022-07-12T13:56:32;8.85;;;5.78;;
48241;SDS011;34041;51.812;4.622;2022-07-12T13:59:32;8.33;;;5.50;;
48241;SDS011;34041;51.812;4.622;2022-07-12T14:02:32;6.45;;;4.78;;
48241;SDS011;34041;51.812;4.622;2022-07-12T14:05:33;5.40;;;4.05;;
48241;SDS011;34041;51.812;4.622;2022-07-12T14:08:33;7.00;;;4.50;;
48241;SDS011;34041;51.812;4.622;2022-07-12T14:11:33;7.32;;;5.05;;
48241;SDS011;34041;51.812;4.622;2022-07-12T14:14:34;5.70;;;4.80;;
48241;SDS011;34041;51.812;4.622;2022-07-12T14:17:52;4.85;;;3.75;;
48241;SDS011;34041;51.812;4.622;2022-07-12T14:20:53;5.50;;;3.83;;
48241;SDS011;34041;51.812;4.622;2022-07-12T14:23:53;5.33;;;3.90;;
48241;SDS011;34041;51.812;4.622;2022-07-12T14:26:54;4.07;;;3.10;;
48241;SDS011;34041;51.812;4.622;2022-07-12T14:29:54;4.03;;;3.37;;
48241;SDS011;34041;51.812;4.622;2022-07-12T14:32:54;5.07;;;3.43;;
48241;SDS011;34041;51.812;4.622;2022-07-12T14:35:54;4.53;;;3.40;;
48241;SDS011;34041;51.812;4.622;2022-07-12T14:38:55;5.05;;;3.42;;
48241;SDS011;34041;51.812;4.622;2022-07-12T14:41:55;5.07;;;3.50;;
48241;SDS011;34041;51.812;4.622;2022-07-12T14:44:55;6.78;;;3.33;;
48241;SDS011;34041;51.812;4.622;2022-07-12T14:47:56;3.83;;;3.27;;
48241;SDS011;34041;51.812;4.622;2022-07-12T14:50:56;4.50;;;3.57;;
48241;SDS011;34041;51.812;4.622;2022-07-12T14:53:56;4.97;;;3.22;;
48241;SDS011;34041;51.812;4.622;2022-07-12T14:56:57;3.93;;;3.00;;
48241;SDS011;34041;51.812;4.622;2022-07-12T14:59:57;6.73;;;3.33;;
48241;SDS011;34041;51.812;4.622;2022-07-12T15:02:57;4.10;;;3.20;;
48241;SDS011;34041;51.812;4.622;2022-07-12T15:05:59;3.67;;;3.30;;
48241;SDS011;34041;51.812;4.622;2022-07-12T15:08:59;3.60;;;2.83;;
48241;SDS011;34041;51.812;4.622;2022-07-12T15:12:00;3.83;;;2.95;;
48241;SDS011;34041;51.812;4.622;2022-07-12T15:15:00;4.60;;;3.57;;
48241;SDS011;34041;51.812;4.622;2022-07-12T15:18:02;5.13;;;3.78;;
48241;SDS011;34041;51.812;4.622;2022-07-12T15:21:02;3.53;;;3.07;;
48241;SDS011;34041;51.812;4.622;2022-07-12T15:24:03;5.30;;;3.20;;
48241;SDS011;34041;51.812;4.622;2022-07-12T15:27:03;4.10;;;3.70;;
48241;SDS011;34041;51.812;4.622;2022-07-12T15:30:06;3.92;;;2.83;;
48241;SDS011;34041;51.812;4.622;2022-07-12T15:33:07;4.78;;;3.75;;
48241;SDS011;34041;51.812;4.622;2022-07-12T15:36:07;3.87;;;3.30;;
48241;SDS011;34041;51.812;4.622;2022-07-12T15:39:08;5.07;;;3.13;;
48241;SDS011;34041;51.812;4.622;2022-07-12T15:42:09;7.50;;;3.38;;
48241;SDS011;34041;51.812;4.622;2022-07-12T15:45:10;4.20;;;3.80;;
48241;SDS011;34041;51.812;4.622;2022-07-12T15:48:12;3.70;;;3.25;;
48241;SDS011;34041;51.812;4.622;2022-07-12T15:51:12;4.50;;;3.80;;
48241;SDS011;34041;51.812;4.622;2022-07-12T15:54:13;4.53;;;3.70;;
48241;SDS011;34041;51.812;4.622;2022-07-12T15:57:13;4.03;;;3.63;;
48241;SDS011;34041;51.812;4.622;2022-07-12T16:00:13;4.00;;;3.53;;
48241;SDS011;34041;51.812;4.622;2022-07-12T16:03:14;5.70;;;3.40;;
48241;SDS011;34041;51.812;4.622;2022-07-12T16:06:15;4.63;;;4.00;;
48241;SDS011;34041;51.812;4.622;2022-07-12T16:09:15;4.72;;;4.15;;
48241;SDS011;34041;51.812;4.622;2022-07-12T16:12:16;4.43;;;4.03;;
48241;SDS011;34041;51.812;4.622;2022-07-12T16:15:16;5.20;;;4.00;;
48241;SDS011;34041;51.812;4.622;2022-07-12T16:18:16;6.68;;;3.97;;
48241;SDS011;34041;51.812;4.622;2022-07-12T16:21:17;5.40;;;4.55;;
48241;SDS011;34041;51.812;4.622;2022-07-12T16:24:18;6.05;;;4.22;;
48241;SDS011;34041;51.812;4.622;2022-07-12T16:27:18;5.90;;;4.47;;
48241;SDS011;34041;51.812;4.622;2022-07-12T16:30:18;4.13;;;3.63;;
48241;SDS011;34041;51.812;4.622;2022-07-12T16:33:19;6.40;;;4.22;;
48241;SDS011;34041;51.812;4.622;2022-07-12T16:36:19;4.22;;;3.55;;
48241;SDS011;34041;51.812;4.622;2022-07-12T16:39:22;4.93;;;4.20;;
48241;SDS011;34041;51.812;4.622;2022-07-12T16:42:22;5.47;;;4.60;;
48241;SDS011;34041;51.812;4.622;2022-07-12T16:45:23;4.65;;;4.20;;
48241;SDS011;34041;51.812;4.622;2022-07-12T16:48:27;5.37;;;4.13;;
48241;SDS011;34041;51.812;4.622;2022-07-12T16:51:27;4.72;;;3.72;;
48241;SDS011;34041;51.812;4.622;2022-07-12T16:54:29;5.57;;;4.35;;
48241;SDS011;34041;51.812;4.622;2022-07-12T16:57:31;4.72;;;3.72;;
48241;SDS011;34041;51.812;4.622;2022-07-12T17:00:31;10.37;;;5.03;;
48241;SDS011;34041;51.812;4.622;2022-07-12T17:03:31;4.68;;;4.18;;
48241;SDS011;34041;51.812;4.622;2022-07-12T17:06:33;6.72;;;4.30;;
48241;SDS011;34041;51.812;4.622;2022-07-12T17:09:34;6.10;;;4.53;;
48241;SDS011;34041;51.812;4.622;2022-07-12T17:12:34;5.78;;;4.32;;
48241;SDS011;34041;51.812;4.622;2022-07-12T17:15:35;4.85;;;4.32;;
48241;SDS011;34041;51.812;4.622;2022-07-12T17:18:35;4.80;;;4.30;;
48241;SDS011;34041;51.812;4.622;2022-07-12T17:21:35;4.50;;;4.05;;
48241;SDS011;34041;51.812;4.622;2022-07-12T17:24:36;6.18;;;3.97;;
48241;SDS011;34041;51.812;4.622;2022-07-12T17:27:36;5.63;;;3.90;;
48241;SDS011;34041;51.812;4.622;2022-07-12T17:30:36;7.80;;;3.67;;
48241;SDS011;34041;51.812;4.622;2022-07-12T17:33:36;4.25;;;3.55;;
48241;SDS011;34041;51.812;4.622;2022-07-12T17:36:37;6.67;;;4.00;;
48241;SDS011;34041;51.812;4.622;2022-07-12T17:39:37;4.47;;;3.85;;
48241;SDS011;34041;51.812;4.622;2022-07-12T17:42:37;4.87;;;4.37;;
48241;SDS011;34041;51.812;4.622;2022-07-12T17:45:38;4.57;;;3.57;;
48241;SDS011;34041;51.812;4.622;2022-07-12T17:48:39;3.25;;;2.88;;
48241;SDS011;34041;51.812;4.622;2022-07-12T17:51:39;5.17;;;3.77;;
48241;SDS011;34041;51.812;4.622;2022-07-12T17:54:40;4.45;;;3.35;;
48241;SDS011;34041;51.812;4.622;2022-07-12T17:57:40;4.90;;;3.93;;
48241;SDS011;34041;51.812;4.622;2022-07-12T18:00:41;5.75;;;3.05;;
48241;SDS011;34041;51.812;4.622;2022-07-12T18:03:43;4.45;;;3.88;;
48241;SDS011;34041;51.812;4.622;2022-07-12T18:06:44;6.25;;;4.40;;
48241;SDS011;34041;51.812;4.622;2022-07-12T18:09:45;3.97;;;3.38;;
48241;SDS011;34041;51.812;4.622;2022-07-12T18:12:47;3.60;;;3.13;;
48241;SDS011;34041;51.812;4.622;2022-07-12T18:16:05;3.75;;;3.10;;